Time;durP1;ratioP1;P1;durP2;ratioP2;P2;SDS_P1;SDS_P2;PMS_P1;PMS_P2;Temp;Humidity;BMP_temperature;BMP_pressure;BME280_temperature;BME280_humidity;BME280_pressure;Samples;Min_cycle;Max_cycle;Signal;HPM_P1;HPM_P2
2022/10/13 00:00:29;;;;;;;16.50;12.63;;;;;;;;;;5032797;28;20264;-90
2022/10/13 00:02:55;;;;;;;21.55;14.73;;;;;;;;;;5032467;28;20403;-90
2022/10/13 00:05:21;;;;;;;23.80;14.27;;;;;;;;;;5032895;28;20185;-90
2022/10/13 00:07:47;;;;;;;21.20;13.43;;;;;;;;;;5017559;28;20211;-90
2022/10/13 00:10:13;;;;;;;18.90;13.75;;;;;;;;;;5031821;28;20419;-90
2022/10/13 00:12:39;;;;;;;21.80;13.10;;;;;;;;;;5032236;28;20189;-82
2022/10/13 00:15:06;;;;;;;18.87;12.83;;;;;;;;;;5048053;28;20264;-81
2022/10/13 00:17:33;;;;;;;16.63;12.73;;;;;;;;;;5021965;28;20272;-78
2022/10/13 00:19:59;;;;;;;19.57;12.57;;;;;;;;;;5048237;28;20188;-78
2022/10/13 00:22:27;;;;;;;23.47;12.73;;;;;;;;;;5047872;28;20174;-78
2022/10/13 00:24:53;;;;;;;20.43;13.17;;;;;;;;;;5014701;28;20177;-78
2022/10/13 00:27:19;;;;;;;20.90;12.57;;;;;;;;;;5030168;28;20235;-90
2022/10/13 00:29:45;;;;;;;18.80;12.63;;;;;;;;;;5049078;28;20196;-89
2022/10/13 00:32:11;;;;;;;23.00;13.70;;;;;;;;;;5021822;28;20216;-89
2022/10/13 00:34:37;;;;;;;22.40;16.30;;;;;;;;;;5017683;28;20457;-90
2022/10/13 00:37:04;;;;;;;23.40;13.50;;;;;;;;;;5034276;28;20180;-88
2022/10/13 00:39:30;;;;;;;18.63;12.80;;;;;;;;;;5029258;28;20215;-88
2022/10/13 00:41:57;;;;;;;22.00;13.67;;;;;;;;;;5052825;28;20215;-89
2022/10/13 00:44:42;;;;;;;18.33;13.27;;;;;;;;;;5021127;28;20185;-78
2022/10/13 00:47:08;;;;;;;16.53;13.20;;;;;;;;;;5036922;28;20261;-76
2022/10/13 00:49:37;;;;;;;20.27;13.00;;;;;;;;;;5024376;28;20228;-77
2022/10/13 00:52:04;;;;;;;20.33;13.47;;;;;;;;;;5024483;28;20221;-77
2022/10/13 00:54:30;;;;;;;18.43;13.03;;;;;;;;;;5024540;28;20213;-76
2022/10/13 00:56:56;;;;;;;23.00;13.70;;;;;;;;;;5007006;28;20191;-76
2022/10/13 00:59:27;;;;;;;24.77;14.53;;;;;;;;;;5020710;28;20189;-78
2022/10/13 01:01:54;;;;;;;18.30;12.93;;;;;;;;;;5023733;28;20192;-77
2022/10/13 01:04:22;;;;;;;21.85;13.30;;;;;;;;;;5033451;28;20434;-77
2022/10/13 01:06:49;;;;;;;23.55;16.35;;;;;;;;;;5039581;28;20488;-78
2022/10/13 01:09:15;;;;;;;19.53;14.33;;;;;;;;;;5022877;28;20184;-78
2022/10/13 01:11:46;;;;;;;20.93;13.80;;;;;;;;;;5006941;28;20205;-77
2022/10/13 01:14:27;;;;;;;21.42;15.57;;;;;;;;;;5038082;28;20417;-77
2022/10/13 01:16:55;;;;;;;18.80;14.03;;;;;;;;;;5036156;28;20180;-77
2022/10/13 01:19:28;;;;;;;21.90;13.60;;;;;;;;;;5021318;28;20186;-77
2022/10/13 01:21:57;;;;;;;24.60;14.37;;;;;;;;;;5024102;28;20193;-78
2022/10/13 01:24:29;;;;;;;21.07;13.80;;;;;;;;;;5022452;28;20211;-78
2022/10/13 01:26:58;;;;;;;16.93;13.47;;;;;;;;;;5020173;28;20187;-82
2022/10/13 01:29:47;;;;;;;18.53;13.83;;;;;;;;;;5020184;28;20288;-82
2022/10/13 01:32:21;;;;;;;23.60;13.67;;;;;;;;;;5055763;28;20241;-82
2022/10/13 01:35:05;;;;;;;22.40;16.03;;;;;;;;;;5022203;28;20411;-80
2022/10/13 01:37:39;;;;;;;20.38;16.20;;;;;;;;;;5021862;28;20427;-80
2022/10/13 01:40:16;;;;;;;22.57;15.90;;;;;;;;;;5021317;28;20498;-80
2022/10/13 01:42:49;;;;;;;19.17;14.33;;;;;;;;;;5023356;28;20434;-81
2022/10/13 01:45:17;;;;;;;21.98;16.58;;;;;;;;;;5045486;28;20401;-90
2022/10/13 01:47:43;;;;;;;21.42;16.33;;;;;;;;;;5022978;28;20422;-81
2022/10/13 01:50:10;;;;;;;20.98;16.02;;;;;;;;;;5038288;28;20423;-79
2022/10/13 01:52:37;;;;;;;18.33;14.17;;;;;;;;;;5020060;28;20342;-80
2022/10/13 01:55:10;;;;;;;21.67;14.10;;;;;;;;;;5021296;28;20263;-81
2022/10/13 01:57:38;;;;;;;21.65;16.25;;;;;;;;;;5038359;28;20511;-80
2022/10/13 02:00:15;;;;;;;22.97;14.03;;;;;;;;;;5023267;28;20169;-80
2022/10/13 02:02:57;;;;;;;19.67;14.27;;;;;;;;;;5018063;28;20178;-79
2022/10/13 02:05:36;;;;;;;22.27;15.40;;;;;;;;;;5020212;28;20433;-80
2022/10/13 02:08:10;;;;;;;19.80;13.93;;;;;;;;;;5032993;28;20201;-81
2022/10/13 02:10:43;;;;;;;19.13;13.13;;;;;;;;;;5022558;28;20213;-80
2022/10/13 02:13:13;;;;;;;19.63;12.60;;;;;;;;;;5017231;28;20180;-80
2022/10/13 02:15:40;;;;;;;20.57;13.60;;;;;;;;;;5018999;28;20181;-78
2022/10/13 02:18:07;;;;;;;19.97;13.40;;;;;;;;;;5017013;28;20189;-78
2022/10/13 02:20:34;;;;;;;17.97;13.70;;;;;;;;;;5021703;28;20272;-77
2022/10/13 02:23:02;;;;;;;19.77;15.68;;;;;;;;;;5019997;28;20462;-78
2022/10/13 02:25:28;;;;;;;18.07;13.50;;;;;;;;;;5022803;28;20239;-81
2022/10/13 02:27:55;;;;;;;20.77;14.23;;;;;;;;;;5038721;28;20196;-81
2022/10/13 02:30:25;;;;;;;17.93;14.10;;;;;;;;;;5037174;28;20181;-81
2022/10/13 02:32:51;;;;;;;21.48;16.50;;;;;;;;;;5037340;28;20430;-81
2022/10/13 02:35:18;;;;;;;21.67;14.63;;;;;;;;;;5021428;28;20187;-89
2022/10/13 02:37:45;;;;;;;18.20;14.73;;;;;;;;;;5031303;28;20177;-89
2022/10/13 02:40:11;;;;;;;20.47;14.27;;;;;;;;;;5021623;28;20247;-90
2022/10/13 02:42:37;;;;;;;22.10;16.83;;;;;;;;;;5019746;28;20485;-89
2022/10/13 02:45:03;;;;;;;23.05;16.00;;;;;;;;;;5036432;28;20456;-89
2022/10/13 02:47:29;;;;;;;20.23;13.93;;;;;;;;;;5033028;28;20173;-89
2022/10/13 02:49:55;;;;;;;22.20;16.55;;;;;;;;;;5016000;28;20487;-90
2022/10/13 02:52:21;;;;;;;22.25;16.90;;;;;;;;;;5016047;28;20446;-90
2022/10/13 02:54:47;;;;;;;19.77;14.87;;;;;;;;;;5017578;28;20177;-90
2022/10/13 02:57:14;;;;;;;21.30;14.23;;;;;;;;;;5016820;28;20234;-90
2022/10/13 02:59:40;;;;;;;23.60;17.20;;;;;;;;;;5032999;28;20398;-90
2022/10/13 03:02:06;;;;;;;24.10;17.75;;;;;;;;;;5032542;28;20413;-86
2022/10/13 03:04:32;;;;;;;21.67;15.10;;;;;;;;;;5033318;28;20184;-90
2022/10/13 03:06:58;;;;;;;21.27;14.88;;;;;;;;;;5020573;28;20407;-80
2022/10/13 03:09:24;;;;;;;22.23;16.58;;;;;;;;;;5043976;28;20439;-80
2022/10/13 03:11:50;;;;;;;24.73;17.67;;;;;;;;;;5013266;28;20462;-89
2022/10/13 03:14:16;;;;;;;25.13;18.13;;;;;;;;;;5030240;28;20415;-80
2022/10/13 03:16:42;;;;;;;22.98;16.60;;;;;;;;;;5045432;28;20497;-80
2022/10/13 03:19:08;;;;;;;24.83;17.58;;;;;;;;;;5027283;28;20444;-80
2022/10/13 03:21:34;;;;;;;23.95;18.70;;;;;;;;;;5048144;28;20423;-80
2022/10/13 03:24:00;;;;;;;23.40;17.73;;;;;;;;;;5017224;28;20482;-80
2022/10/13 03:26:26;;;;;;;22.90;18.35;;;;;;;;;;5015895;28;20533;-80
2022/10/13 03:28:53;;;;;;;22.07;15.43;;;;;;;;;;5049047;28;20180;-80
2022/10/13 03:31:19;;;;;;;22.30;15.95;;;;;;;;;;5016326;28;20446;-80
2022/10/13 03:33:45;;;;;;;23.98;18.13;;;;;;;;;;5007112;28;20447;-81
2022/10/13 03:36:12;;;;;;;19.97;15.40;;;;;;;;;;5008198;28;20185;-81
2022/10/13 03:38:38;;;;;;;23.03;15.43;;;;;;;;;;5048899;28;20185;-81
2022/10/13 03:41:08;;;;;;;22.80;16.20;;;;;;;;;;5048172;28;20507;-81
2022/10/13 03:43:34;;;;;;;19.13;14.83;;;;;;;;;;5048915;28;20177;-81
2022/10/13 03:46:01;;;;;;;19.83;13.60;;;;;;;;;;5016447;28;20193;-81
2022/10/13 03:48:27;;;;;;;21.95;17.38;;;;;;;;;;5031518;28;20411;-80
2022/10/13 03:50:54;;;;;;;22.17;17.00;;;;;;;;;;5031194;28;20621;-80
2022/10/13 03:53:20;;;;;;;21.45;16.90;;;;;;;;;;5014684;28;20426;-80
2022/10/13 03:55:50;;;;;;;21.27;16.92;;;;;;;;;;5015420;28;20419;-80
2022/10/13 03:58:16;;;;;;;19.07;14.70;;;;;;;;;;5015608;28;20192;-89
2022/10/13 04:00:42;;;;;;;22.53;16.97;;;;;;;;;;5031278;28;20502;-81
2022/10/13 04:03:09;;;;;;;21.83;17.50;;;;;;;;;;5030457;28;20477;-80
2022/10/13 04:05:35;;;;;;;23.83;18.15;;;;;;;;;;5031292;28;20415;-90
2022/10/13 04:08:01;;;;;;;21.60;15.60;;;;;;;;;;5049061;28;20200;-88
2022/10/13 04:10:27;;;;;;;21.63;15.50;;;;;;;;;;5050120;28;20227;-90
2022/10/13 04:12:53;;;;;;;24.65;18.42;;;;;;;;;;5047928;28;20415;-90
2022/10/13 04:15:19;;;;;;;23.67;18.20;;;;;;;;;;5048248;28;20498;-77
2022/10/13 04:17:45;;;;;;;22.85;18.60;;;;;;;;;;5047320;28;20424;-77
2022/10/13 04:20:11;;;;;;;23.00;18.67;;;;;;;;;;5030800;28;20450;-80
2022/10/13 04:22:37;;;;;;;26.35;18.15;;;;;;;;;;5015509;28;20422;-77
2022/10/13 04:25:03;;;;;;;25.95;18.50;;;;;;;;;;5031432;28;20457;-76
2022/10/13 04:27:30;;;;;;;22.23;15.90;;;;;;;;;;5047897;28;20186;-77
2022/10/13 04:29:56;;;;;;;22.60;17.38;;;;;;;;;;5015252;28;20461;-77
2022/10/13 04:32:22;;;;;;;24.70;18.35;;;;;;;;;;5015036;28;20493;-77
2022/10/13 04:34:48;;;;;;;26.60;19.73;;;;;;;;;;5034614;28;20538;-77
2022/10/13 04:37:14;;;;;;;26.25;18.55;;;;;;;;;;5029939;28;20433;-89
2022/10/13 04:39:40;;;;;;;24.73;18.63;;;;;;;;;;5031107;28;20419;-89
2022/10/13 04:42:06;;;;;;;25.85;18.63;;;;;;;;;;5030597;28;20415;-89
2022/10/13 04:44:32;;;;;;;27.67;19.48;;;;;;;;;;5030747;28;20496;-88
2022/10/13 04:46:59;;;;;;;28.38;20.00;;;;;;;;;;5030519;28;20503;-90
2022/10/13 04:49:25;;;;;;;26.20;18.67;;;;;;;;;;5037479;22;20452;-79
2022/10/13 04:51:51;;;;;;;26.02;18.98;;;;;;;;;;4993233;28;20518;-79
2022/10/13 04:54:17;;;;;;;27.48;19.10;;;;;;;;;;4967451;28;21500;-79
2022/10/13 04:56:44;;;;;;;27.23;19.65;;;;;;;;;;4977278;28;20479;-79
2022/10/13 04:59:10;;;;;;;30.30;20.15;;;;;;;;;;4993746;28;20428;-89
2022/10/13 05:01:36;;;;;;;27.92;19.38;;;;;;;;;;4977542;28;20484;-88
2022/10/13 05:04:04;;;;;;;30.17;19.10;;;;;;;;;;4993648;28;20443;-81
2022/10/13 05:06:31;;;;;;;27.38;18.48;;;;;;;;;;5005108;28;20434;-81
2022/10/13 05:08:58;;;;;;;25.38;18.20;;;;;;;;;;4995308;28;20416;-81
2022/10/13 05:11:25;;;;;;;29.67;18.47;;;;;;;;;;4994111;28;20489;-78
2022/10/13 05:13:51;;;;;;;28.70;16.00;;;;;;;;;;4993897;28;20259;-76
2022/10/13 05:16:18;;;;;;;27.53;16.23;;;;;;;;;;4977188;28;20240;-77
2022/10/13 05:18:45;;;;;;;25.77;15.90;;;;;;;;;;4993684;28;20174;-77
2022/10/13 05:21:12;;;;;;;23.88;15.95;;;;;;;;;;4993781;28;20507;-77
2022/10/13 05:23:42;;;;;;;27.92;17.67;;;;;;;;;;4988690;28;20421;-77
2022/10/13 05:26:09;;;;;;;26.13;19.15;;;;;;;;;;4990947;28;20444;-77
2022/10/13 05:28:35;;;;;;;28.50;19.88;;;;;;;;;;4993708;28;20440;-90
2022/10/13 05:31:08;;;;;;;27.45;18.30;;;;;;;;;;4982315;28;20445;-89
2022/10/13 05:33:34;;;;;;;25.38;18.88;;;;;;;;;;4993272;28;20412;-90
2022/10/13 05:36:07;;;;;;;27.73;19.38;;;;;;;;;;4993380;28;20519;-89
2022/10/13 05:38:33;;;;;;;26.70;18.65;;;;;;;;;;4994848;28;20488;-89
2022/10/13 05:41:03;;;;;;;24.60;17.60;;;;;;;;;;4992948;28;20475;-90
2022/10/13 05:43:30;;;;;;;25.13;16.20;;;;;;;;;;4994767;28;20174;-90
2022/10/13 05:45:56;;;;;;;22.77;15.40;;;;;;;;;;4994084;28;20185;-82
2022/10/13 05:48:22;;;;;;;22.13;14.73;;;;;;;;;;4993955;28;20205;-81
2022/10/13 05:50:48;;;;;;;22.27;16.30;;;;;;;;;;4977244;28;20527;-81
2022/10/13 05:53:14;;;;;;;25.37;14.40;;;;;;;;;;4995316;28;20425;-81
2022/10/13 05:55:40;;;;;;;23.65;16.98;;;;;;;;;;4993618;28;20416;-77
2022/10/13 05:58:06;;;;;;;22.80;15.97;;;;;;;;;;4994281;28;20245;-81
2022/10/13 06:00:32;;;;;;;21.20;14.97;;;;;;;;;;4974448;28;20194;-81
2022/10/13 06:03:01;;;;;;;23.40;16.87;;;;;;;;;;4975747;28;20433;-81
2022/10/13 06:05:28;;;;;;;20.63;17.20;;;;;;;;;;4993624;28;20405;-81
2022/10/13 06:07:54;;;;;;;21.88;16.90;;;;;;;;;;4992616;28;20413;-91
2022/10/13 06:10:21;;;;;;;24.20;17.23;;;;;;;;;;4977082;28;20417;-90
2022/10/13 06:12:47;;;;;;;21.33;17.17;;;;;;;;;;4994748;28;20416;-91
2022/10/13 06:15:13;;;;;;;23.77;15.07;;;;;;;;;;4996095;28;20185;-90
2022/10/13 06:17:39;;;;;;;24.70;15.70;;;;;;;;;;4996975;28;20266;-82
2022/10/13 06:20:06;;;;;;;24.20;15.10;;;;;;;;;;4972539;28;20183;-81
2022/10/13 06:22:33;;;;;;;23.80;15.10;;;;;;;;;;4988782;28;20177;-81
2022/10/13 06:24:59;;;;;;;22.23;15.57;;;;;;;;;;4992943;28;20181;-81
2022/10/13 06:27:25;;;;;;;22.38;16.20;;;;;;;;;;4972967;28;20464;-81
2022/10/13 06:29:51;;;;;;;27.52;17.60;;;;;;;;;;4992145;28;20479;-79
2022/10/13 06:32:17;;;;;;;23.05;18.08;;;;;;;;;;4976826;28;20480;-81
2022/10/13 06:34:43;;;;;;;25.17;17.90;;;;;;;;;;4968147;28;20461;-88
2022/10/13 06:37:09;;;;;;;26.20;17.65;;;;;;;;;;4979499;28;20428;-88
2022/10/13 06:39:35;;;;;;;23.40;17.65;;;;;;;;;;4980890;28;20405;-87
2022/10/13 06:42:01;;;;;;;24.25;17.67;;;;;;;;;;4975370;28;20449;-88
2022/10/13 06:44:27;;;;;;;25.88;18.08;;;;;;;;;;4991450;28;20426;-89
2022/10/13 06:46:53;;;;;;;27.88;18.08;;;;;;;;;;4979168;28;20494;-87
2022/10/13 06:49:19;;;;;;;26.70;17.17;;;;;;;;;;4994774;28;20425;-88
2022/10/13 06:51:45;;;;;;;23.90;17.55;;;;;;;;;;4992851;28;20448;-80
2022/10/13 06:54:12;;;;;;;25.67;17.77;;;;;;;;;;4993742;28;20445;-80
2022/10/13 06:56:37;;;;;;;23.48;17.45;;;;;;;;;;4995600;28;20420;-79
2022/10/13 06:59:03;;;;;;;25.02;18.02;;;;;;;;;;4980390;28;20411;-80
2022/10/13 07:01:29;;;;;;;26.20;18.13;;;;;;;;;;4996269;28;20524;-80
2022/10/13 07:03:55;;;;;;;26.03;18.13;;;;;;;;;;4996187;28;20576;-80
2022/10/13 07:06:22;;;;;;;26.13;17.70;;;;;;;;;;4979619;28;20487;-80
2022/10/13 07:08:48;;;;;;;25.13;18.07;;;;;;;;;;4995991;28;20408;-81
2022/10/13 07:11:14;;;;;;;24.77;17.58;;;;;;;;;;4996025;28;20428;-89
2022/10/13 07:13:41;;;;;;;23.27;17.50;;;;;;;;;;4995952;28;20427;-89
2022/10/13 07:16:08;;;;;;;25.10;18.05;;;;;;;;;;4980201;28;20431;-89
2022/10/13 07:18:34;;;;;;;24.33;17.63;;;;;;;;;;4996016;28;20404;-89
2022/10/13 07:21:01;;;;;;;26.90;17.63;;;;;;;;;;4996031;28;20412;-89
2022/10/13 07:23:27;;;;;;;25.02;17.85;;;;;;;;;;4976609;28;20425;-90
2022/10/13 07:25:55;;;;;;;27.60;18.65;;;;;;;;;;4994415;28;20428;-89
2022/10/13 07:28:22;;;;;;;23.25;17.55;;;;;;;;;;4995911;28;20420;-89
2022/10/13 07:30:48;;;;;;;25.92;16.95;;;;;;;;;;4996046;28;20444;-89
2022/10/13 07:33:14;;;;;;;23.77;17.27;;;;;;;;;;4980406;28;20424;-89
2022/10/13 07:35:40;;;;;;;24.50;16.93;;;;;;;;;;4976472;28;20425;-89
2022/10/13 07:38:06;;;;;;;23.10;17.60;;;;;;;;;;4976161;28;20476;-89
2022/10/13 07:40:33;;;;;;;24.73;17.90;;;;;;;;;;4992767;28;20460;-83
2022/10/13 07:42:59;;;;;;;23.20;16.27;;;;;;;;;;5001016;28;20417;-78
2022/10/13 07:45:25;;;;;;;21.95;16.92;;;;;;;;;;4995619;28;20424;-80
2022/10/13 07:47:51;;;;;;;25.02;17.88;;;;;;;;;;4996204;28;20486;-80
2022/10/13 07:50:17;;;;;;;26.50;18.75;;;;;;;;;;4978478;28;20436;-80
2022/10/13 07:52:43;;;;;;;28.70;18.85;;;;;;;;;;4995926;28;20413;-81
2022/10/13 07:55:09;;;;;;;24.95;19.42;;;;;;;;;;4981093;28;20437;-82
2022/10/13 07:57:35;;;;;;;28.88;20.27;;;;;;;;;;4996124;28;20421;-82
2022/10/13 08:00:02;;;;;;;26.38;20.02;;;;;;;;;;4991885;28;20436;-81
2022/10/13 08:02:29;;;;;;;23.10;18.85;;;;;;;;;;4995158;28;20412;-81
2022/10/13 08:04:55;;;;;;;28.20;19.65;;;;;;;;;;4993596;28;20444;-81
2022/10/13 08:07:21;;;;;;;23.25;18.30;;;;;;;;;;4993713;28;20452;-78
2022/10/13 08:09:47;;;;;;;24.20;17.30;;;;;;;;;;4978002;28;20186;-78
2022/10/13 08:12:13;;;;;;;25.55;19.85;;;;;;;;;;4994428;28;20448;-78
2022/10/13 08:14:39;;;;;;;26.42;18.95;;;;;;;;;;4978836;28;20420;-80
2022/10/13 08:17:05;;;;;;;26.85;19.27;;;;;;;;;;4978372;28;20409;-81
2022/10/13 08:19:31;;;;;;;29.05;20.02;;;;;;;;;;4992351;28;20431;-80
2022/10/13 08:21:57;;;;;;;28.00;18.70;;;;;;;;;;4994475;28;20503;-80
2022/10/13 08:24:23;;;;;;;22.77;16.13;;;;;;;;;;4979027;28;20281;-81
2022/10/13 08:26:49;;;;;;;25.37;16.77;;;;;;;;;;4995264;28;20186;-81
2022/10/13 08:29:15;;;;;;;26.87;17.70;;;;;;;;;;4977255;28;20261;-81
2022/10/13 08:31:42;;;;;;;26.00;19.00;;;;;;;;;;4995459;28;20447;-79
2022/10/13 08:34:08;;;;;;;29.52;20.08;;;;;;;;;;4978384;28;20419;-78
2022/10/13 08:36:34;;;;;;;28.13;19.23;;;;;;;;;;4994334;28;20495;-78
2022/10/13 08:39:00;;;;;;;29.20;19.05;;;;;;;;;;4977440;28;20412;-81
2022/10/13 08:41:28;;;;;;;26.60;18.90;;;;;;;;;;4978508;28;20511;-82
2022/10/13 08:43:56;;;;;;;26.45;18.63;;;;;;;;;;4994424;28;20424;-81
2022/10/13 08:46:28;;;;;;;28.55;18.90;;;;;;;;;;4995585;28;20401;-81
2022/10/13 08:48:55;;;;;;;28.38;18.75;;;;;;;;;;4993883;28;20412;-81
2022/10/13 08:51:21;;;;;;;26.67;17.95;;;;;;;;;;4992051;28;20446;-81
2022/10/13 08:53:48;;;;;;;24.13;18.45;;;;;;;;;;4974266;28;20430;-80
2022/10/13 08:56:18;;;;;;;23.98;18.40;;;;;;;;;;4987221;28;20416;-81
2022/10/13 08:58:44;;;;;;;27.00;18.33;;;;;;;;;;4989686;28;20421;-81
2022/10/13 09:01:10;;;;;;;24.27;18.45;;;;;;;;;;4993108;28;20465;-82
2022/10/13 09:03:51;;;;;;;26.30;18.97;;;;;;;;;;4993772;28;20448;-81
2022/10/13 09:06:43;;;;;;;24.17;18.35;;;;;;;;;;4992768;28;20424;-90
2022/10/13 09:09:10;;;;;;;31.05;19.13;;;;;;;;;;4971096;28;20439;-89
2022/10/13 09:11:38;;;;;;;26.80;18.48;;;;;;;;;;4993366;28;20461;-89
2022/10/13 09:14:08;;;;;;;23.88;18.63;;;;;;;;;;4993498;28;20524;-89
2022/10/13 09:16:38;;;;;;;24.65;18.13;;;;;;;;;;4992508;28;20419;-89
2022/10/13 09:19:16;;;;;;;23.95;17.58;;;;;;;;;;4992140;28;20423;-89
2022/10/13 09:21:42;;;;;;;25.20;16.50;;;;;;;;;;4992523;28;20523;-78
2022/10/13 09:24:13;;;;;;;20.42;15.00;;;;;;;;;;4993095;28;20441;-80
2022/10/13 09:26:39;;;;;;;23.05;15.07;;;;;;;;;;4992304;28;20465;-78
2022/10/13 09:29:09;;;;;;;20.23;14.48;;;;;;;;;;4992694;28;20432;-78
2022/10/13 09:31:36;;;;;;;19.20;14.43;;;;;;;;;;4992745;28;20424;-78
2022/10/13 09:34:14;;;;;;;20.60;14.10;;;;;;;;;;4977002;28;20421;-78
2022/10/13 09:36:55;;;;;;;22.52;14.27;;;;;;;;;;4992617;28;20420;-77
2022/10/13 09:39:21;;;;;;;21.42;14.40;;;;;;;;;;4991573;28;20459;-78
2022/10/13 09:41:47;;;;;;;23.05;14.70;;;;;;;;;;4992728;28;20484;-78
2022/10/13 09:44:27;;;;;;;22.73;15.17;;;;;;;;;;4976184;28;20524;-78
2022/10/13 09:46:55;;;;;;;19.33;14.23;;;;;;;;;;4992530;28;20433;-78
2022/10/13 09:49:40;;;;;;;20.60;14.70;;;;;;;;;;4993116;28;20413;-82
2022/10/13 09:52:06;;;;;;;19.98;14.32;;;;;;;;;;4991685;28;20449;-81
2022/10/13 09:54:42;;;;;;;20.05;14.40;;;;;;;;;;4979030;28;20474;-82
2022/10/13 09:57:17;;;;;;;20.27;14.70;;;;;;;;;;5007100;28;20416;-81
2022/10/13 09:59:49;;;;;;;22.17;15.38;;;;;;;;;;4992411;28;20401;-81
2022/10/13 10:02:18;;;;;;;24.10;15.25;;;;;;;;;;4989683;28;20423;-82
2022/10/13 10:04:45;;;;;;;20.10;15.20;;;;;;;;;;4990939;28;20427;-81
2022/10/13 10:07:13;;;;;;;21.77;15.10;;;;;;;;;;4991802;28;20432;-89
2022/10/13 10:09:41;;;;;;;21.58;15.38;;;;;;;;;;4992468;28;20456;-89
2022/10/13 10:12:12;;;;;;;23.35;14.80;;;;;;;;;;4991892;28;20504;-80
2022/10/13 10:14:38;;;;;;;18.37;15.50;;;;;;;;;;4994036;28;20413;-80
2022/10/13 10:17:10;;;;;;;21.70;14.95;;;;;;;;;;4992539;28;20521;-78
2022/10/13 10:19:42;;;;;;;23.25;15.70;;;;;;;;;;4992604;28;20424;-78
2022/10/13 10:22:16;;;;;;;21.33;15.10;;;;;;;;;;4991868;28;20460;-78
2022/10/13 10:24:46;;;;;;;21.23;15.07;;;;;;;;;;4992615;28;20420;-77
2022/10/13 10:27:21;;;;;;;23.52;15.25;;;;;;;;;;4993297;28;20428;-78
2022/10/13 10:29:53;;;;;;;20.57;14.93;;;;;;;;;;4996747;28;20486;-89
2022/10/13 10:32:35;;;;;;;21.67;15.07;;;;;;;;;;4993567;28;20447;-80
2022/10/13 10:35:03;;;;;;;23.27;14.93;;;;;;;;;;4996182;28;20404;-80
2022/10/13 10:37:35;;;;;;;22.42;14.73;;;;;;;;;;4996052;28;20409;-80
2022/10/13 10:40:04;;;;;;;23.48;15.00;;;;;;;;;;4997383;28;20562;-80
2022/10/13 10:42:49;;;;;;;21.75;14.65;;;;;;;;;;4995670;28;20408;-78
2022/10/13 10:45:17;;;;;;;21.48;15.15;;;;;;;;;;4995843;28;20566;-78
2022/10/13 10:47:45;;;;;;;20.35;14.75;;;;;;;;;;4996177;28;20534;-77
2022/10/13 10:50:14;;;;;;;22.58;15.48;;;;;;;;;;5001550;22;20460;-77
2022/10/13 10:52:46;;;;;;;21.25;14.80;;;;;;;;;;4995749;28;20511;-78
2022/10/13 10:55:29;;;;;;;24.83;15.50;;;;;;;;;;4995085;28;20455;-78
2022/10/13 10:58:11;;;;;;;23.10;15.93;;;;;;;;;;4992898;28;20467;-78
2022/10/13 11:00:41;;;;;;;23.63;16.13;;;;;;;;;;4992279;28;20429;-80
2022/10/13 11:03:10;;;;;;;23.43;17.07;;;;;;;;;;4985237;28;20424;-80
2022/10/13 11:05:55;;;;;;;26.00;17.10;;;;;;;;;;4995673;28;20416;-80
2022/10/13 11:08:26;;;;;;;22.02;16.55;;;;;;;;;;4995284;28;20505;-80
2022/10/13 11:11:12;;;;;;;23.05;16.35;;;;;;;;;;4995252;28;20464;-80
2022/10/13 11:13:52;;;;;;;24.00;17.10;;;;;;;;;;4992974;28;20532;-80
2022/10/13 11:16:27;;;;;;;25.63;16.33;;;;;;;;;;4995453;28;20209;-80
2022/10/13 11:18:58;;;;;;;22.60;16.17;;;;;;;;;;4995997;28;20200;-81
2022/10/13 11:21:25;;;;;;;28.53;16.77;;;;;;;;;;4998857;28;20190;-82
2022/10/13 11:23:51;;;;;;;22.40;15.73;;;;;;;;;;4995750;28;20265;-82
2022/10/13 11:26:23;;;;;;;23.13;15.80;;;;;;;;;;5006078;28;20190;-82
2022/10/13 11:28:49;;;;;;;21.47;16.30;;;;;;;;;;4997140;28;20191;-81
2022/10/13 11:31:15;;;;;;;23.43;16.77;;;;;;;;;;4996609;28;20267;-81
2022/10/13 11:33:41;;;;;;;22.33;16.63;;;;;;;;;;4988152;28;20182;-81
2022/10/13 11:36:26;;;;;;;27.87;18.13;;;;;;;;;;4999384;28;20170;-89
2022/10/13 11:38:55;;;;;;;28.47;18.43;;;;;;;;;;4992553;28;20226;-81
2022/10/13 11:41:26;;;;;;;25.03;18.90;;;;;;;;;;4977502;28;20202;-81
2022/10/13 11:44:13;;;;;;;25.90;19.53;;;;;;;;;;4978193;28;20198;-81
2022/10/13 11:46:39;;;;;;;24.00;18.43;;;;;;;;;;4992590;28;20190;-81
2022/10/13 11:49:14;;;;;;;25.80;18.33;;;;;;;;;;4995398;28;20252;-81
2022/10/13 11:52:01;;;;;;;24.43;18.37;;;;;;;;;;4997149;28;20339;-91
2022/10/13 11:54:32;;;;;;;30.87;19.20;;;;;;;;;;4996251;28;20193;-89
2022/10/13 11:56:58;;;;;;;25.43;18.73;;;;;;;;;;4995670;28;20182;-88
2022/10/13 11:59:24;;;;;;;28.50;19.87;;;;;;;;;;4995745;28;20181;-87
2022/10/13 12:02:17;;;;;;;25.60;20.07;;;;;;;;;;4996166;28;20178;-89
2022/10/13 12:04:44;;;;;;;30.33;21.17;;;;;;;;;;4994911;28;20186;-89
2022/10/13 12:07:12;;;;;;;32.67;21.33;;;;;;;;;;4996795;28;20189;-89
2022/10/13 12:09:48;;;;;;;32.37;22.07;;;;;;;;;;4995395;28;20186;-79
2022/10/13 12:12:15;;;;;;;33.50;21.23;;;;;;;;;;4996493;28;20237;-79
2022/10/13 12:14:43;;;;;;;30.43;22.17;;;;;;;;;;4996491;28;20228;-78
2022/10/13 12:17:28;;;;;;;34.23;22.07;;;;;;;;;;4979661;28;20174;-78
2022/10/13 12:19:55;;;;;;;31.73;22.40;;;;;;;;;;4984358;28;20190;-78
2022/10/13 12:22:21;;;;;;;32.53;22.50;;;;;;;;;;4995261;28;20264;-79
2022/10/13 12:25:06;;;;;;;34.60;22.87;;;;;;;;;;4995172;28;20228;-83
2022/10/13 12:27:40;;;;;;;31.37;22.83;;;;;;;;;;4995275;28;20210;-82
2022/10/13 12:30:19;;;;;;;31.37;21.57;;;;;;;;;;4995756;28;20178;-82
2022/10/13 12:32:49;;;;;;;31.97;22.67;;;;;;;;;;4995229;28;20252;-82
2022/10/13 12:35:19;;;;;;;30.07;22.57;;;;;;;;;;4995644;28;20177;-82
2022/10/13 12:37:46;;;;;;;31.70;22.80;;;;;;;;;;4995719;28;20246;-82
2022/10/13 12:40:13;;;;;;;31.87;21.83;;;;;;;;;;4996154;28;20186;-81
2022/10/13 12:42:39;;;;;;;27.93;21.40;;;;;;;;;;4996387;28;20186;-88
2022/10/13 12:45:06;;;;;;;28.93;20.87;;;;;;;;;;4995575;28;20229;-88
2022/10/13 12:47:35;;;;;;;28.40;21.13;;;;;;;;;;4978914;28;20190;-87
2022/10/13 12:50:31;;;;;;;31.80;22.13;;;;;;;;;;4994726;28;20226;-88
2022/10/13 12:53:18;;;;;;;27.13;21.13;;;;;;;;;;4996486;28;20213;-89
2022/10/13 12:55:47;;;;;;;26.83;20.27;;;;;;;;;;4995239;28;20192;-82
2022/10/13 12:58:24;;;;;;;25.03;19.87;;;;;;;;;;4996268;28;20174;-78
2022/10/13 13:00:55;;;;;;;27.23;20.20;;;;;;;;;;4994344;28;20196;-78
2022/10/13 13:03:24;;;;;;;26.30;19.10;;;;;;;;;;4996020;28;20178;-78
2022/10/13 13:06:06;;;;;;;23.87;18.33;;;;;;;;;;4994740;28;20186;-78
2022/10/13 13:08:32;;;;;;;24.37;17.97;;;;;;;;;;4975254;28;20178;-78
2022/10/13 13:10:59;;;;;;;24.97;18.73;;;;;;;;;;4976363;28;20202;-77
2022/10/13 13:13:25;;;;;;;26.43;18.30;;;;;;;;;;4994796;28;20174;-77
2022/10/13 13:15:51;;;;;;;22.40;18.00;;;;;;;;;;4978582;28;20182;-79
2022/10/13 13:18:26;;;;;;;26.17;17.87;;;;;;;;;;4993957;28;20304;-80
2022/10/13 13:20:55;;;;;;;25.13;17.17;;;;;;;;;;4994001;28;20229;-80
2022/10/13 13:23:22;;;;;;;26.10;18.53;;;;;;;;;;4994679;28;20188;-80
2022/10/13 13:26:08;;;;;;;24.27;18.67;;;;;;;;;;4994297;28;20193;-80
2022/10/13 13:28:34;;;;;;;26.10;17.33;;;;;;;;;;4994511;28;20196;-80
2022/10/13 13:31:00;;;;;;;22.27;17.87;;;;;;;;;;4995119;28;20202;-77
2022/10/13 13:33:26;;;;;;;30.33;18.47;;;;;;;;;;4994263;28;20178;-77
2022/10/13 13:35:53;;;;;;;23.57;17.93;;;;;;;;;;4993610;28;20206;-77
2022/10/13 13:38:19;;;;;;;27.67;18.80;;;;;;;;;;4977982;28;20198;-77
2022/10/13 13:40:45;;;;;;;27.03;18.27;;;;;;;;;;4994459;28;20265;-77
2022/10/13 13:43:11;;;;;;;22.83;17.93;;;;;;;;;;4994441;28;20212;-77
2022/10/13 13:45:37;;;;;;;29.23;19.07;;;;;;;;;;4977380;28;20217;-77
2022/10/13 13:48:03;;;;;;;25.43;19.43;;;;;;;;;;4977373;28;20213;-79
2022/10/13 13:50:34;;;;;;;26.37;19.80;;;;;;;;;;4977705;28;20269;-82
2022/10/13 13:53:00;;;;;;;29.97;19.80;;;;;;;;;;4995512;28;20240;-90
2022/10/13 13:55:29;;;;;;;27.90;19.37;;;;;;;;;;4994299;28;20185;-88
2022/10/13 13:57:56;;;;;;;27.93;18.80;;;;;;;;;;4983822;28;20213;-90
2022/10/13 14:00:22;;;;;;;27.33;19.47;;;;;;;;;;4971963;28;20187;-90
2022/10/13 14:02:48;;;;;;;27.97;19.07;;;;;;;;;;4986170;28;20233;-89
2022/10/13 14:05:15;;;;;;;23.30;18.60;;;;;;;;;;4977899;28;20190;-80
2022/10/13 14:07:41;;;;;;;26.33;18.90;;;;;;;;;;4994253;28;20178;-82
2022/10/13 14:10:07;;;;;;;23.80;19.37;;;;;;;;;;4988748;28;20186;-82
2022/10/13 14:12:35;;;;;;;22.37;18.33;;;;;;;;;;4986706;28;20293;-81
2022/10/13 14:15:01;;;;;;;26.10;18.43;;;;;;;;;;4974045;28;20185;-81
2022/10/13 14:17:27;;;;;;;26.53;19.83;;;;;;;;;;4976767;28;20178;-81
2022/10/13 14:19:54;;;;;;;24.10;19.13;;;;;;;;;;4977371;28;20182;-81
2022/10/13 14:22:20;;;;;;;25.00;18.50;;;;;;;;;;4990290;28;20185;-77
2022/10/13 14:24:46;;;;;;;21.77;19.07;;;;;;;;;;4974360;28;20182;-77